Time;durP1;ratioP1;P1;durP2;ratioP2;P2;SDS_P1;SDS_P2;PMS_P1;PMS_P2;Temp;Humidity;BMP_temperature;BMP_pressure;BME280_temperature;BME280_humidity;BME280_pressure;Samples;Min_cycle;Max_cycle;Signal;HPM_P1;HPM_P2
2022/02/07 00:00:36;;;;;;;7.47;2.13;;;5.30;82.00;;;;;;5065926;28;20028;-90
2022/02/07 00:03:09;;;;;;;7.60;2.10;;;5.30;81.90;;;;;;5071651;28;20021;-89
2022/02/07 00:05:36;;;;;;;5.53;1.65;;;5.30;81.80;;;;;;5067081;28;20108;-88
2022/02/07 00:08:02;;;;;;;8.52;1.80;;;5.30;81.80;;;;;;5064548;28;20031;-88
2022/02/07 00:10:28;;;;;;;8.43;1.92;;;5.40;81.70;;;;;;5066931;28;20021;-89
2022/02/07 00:12:54;;;;;;;6.93;1.58;;;5.40;81.70;;;;;;5072912;28;20047;-88
2022/02/07 00:15:20;;;;;;;6.88;1.95;;;5.40;81.60;;;;;;5069057;28;20744;-88
2022/02/07 00:17:47;;;;;;;5.78;1.88;;;5.40;81.50;;;;;;5062597;28;20033;-88
2022/02/07 00:20:19;;;;;;;8.85;2.15;;;5.50;81.50;;;;;;5066678;28;20063;-88
2022/02/07 00:22:45;;;;;;;5.47;1.58;;;5.50;81.30;;;;;;5053892;28;20028;-88
2022/02/07 00:25:11;;;;;;;7.38;1.58;;;5.40;80.30;;;;;;5070025;28;20020;-89
2022/02/07 00:27:37;;;;;;;3.67;1.40;;;5.30;79.40;;;;;;5069593;28;20223;-89
2022/02/07 00:30:04;;;;;;;5.85;1.40;;;5.20;79.30;;;;;;5068856;28;20029;-86
2022/02/07 00:32:30;;;;;;;4.45;1.00;;;5.20;79.30;;;;;;5063084;28;20066;-88
2022/02/07 00:34:57;;;;;;;2.42;1.00;;;5.10;79.20;;;;;;5063055;28;20025;-88
2022/02/07 00:37:28;;;;;;;2.55;1.17;;;5.10;78.90;;;;;;5065598;28;20020;-88
2022/02/07 00:40:14;;;;;;;3.00;1.05;;;5.10;78.80;;;;;;5062762;28;20012;-88
2022/02/07 00:43:14;;;;;;;2.10;1.10;;;5.10;78.90;;;;;;5069898;28;20089;-87
2022/02/07 00:45:51;;;;;;;3.00;0.90;;;5.10;78.70;;;;;;5065486;28;20116;-88
2022/02/07 00:48:19;;;;;;;3.13;1.30;;;5.00;78.40;;;;;;5065423;28;20550;-90
2022/02/07 00:50:44;;;;;;;3.42;1.23;;;5.00;78.00;;;;;;5059449;28;20124;-89
2022/02/07 00:53:13;;;;;;;2.95;1.00;;;5.00;78.40;;;;;;5066913;28;20182;-88
2022/02/07 00:55:39;;;;;;;3.95;1.13;;;5.00;77.80;;;;;;5064981;28;20021;-88
2022/02/07 00:58:04;;;;;;;7.28;1.60;;;5.00;77.90;;;;;;5067761;28;20035;-88
2022/02/07 01:00:30;;;;;;;4.78;1.48;;;5.00;77.70;;;;;;5063493;28;20031;-87
2022/02/07 01:02:56;;;;;;;5.50;1.20;;;5.00;77.50;;;;;;5068447;28;20470;-88
2022/02/07 01:05:22;;;;;;;3.88;1.30;;;5.00;77.40;;;;;;5063146;28;20033;-87
2022/02/07 01:07:50;;;;;;;5.90;1.30;;;5.00;77.50;;;;;;5059299;28;20033;-89
2022/02/07 01:10:21;;;;;;;7.53;1.77;;;5.00;77.50;;;;;;5060841;28;20077;-88
2022/02/07 01:15:35;;;;;;;5.07;1.38;;;5.00;77.50;;;;;;5060949;28;20082;-87
2022/02/07 01:23:16;;;;;;;5.38;1.50;;;5.00;77.70;;;;;;5061791;28;20073;-87
2022/02/07 01:46:07;;;;;;;2.97;1.30;;;5.00;78.00;;;;;;5070562;28;20391;-85
2022/02/07 01:57:54;;;;;;;8.88;1.90;;;5.00;78.90;;;;;;5071740;28;20123;-89
2022/02/07 02:00:19;;;;;;;7.68;1.65;;;5.00;79.00;;;;;;5071596;28;20464;-90
2022/02/07 02:02:46;;;;;;;5.13;1.50;;;5.10;79.10;;;;;;5066464;28;20112;-89
2022/02/07 02:05:12;;;;;;;7.72;1.73;;;5.10;79.10;;;;;;5070507;28;20013;-91
2022/02/07 02:07:38;;;;;;;9.32;2.10;;;5.10;79.20;;;;;;5066171;28;20036;-89
2022/02/07 02:10:04;;;;;;;8.60;1.60;;;5.10;79.10;;;;;;5061580;28;20021;-89
2022/02/07 02:12:34;;;;;;;5.82;1.85;;;5.10;79.10;;;;;;5062146;28;20037;-88
2022/02/07 02:15:15;;;;;;;7.95;1.98;;;5.10;79.20;;;;;;5063574;28;20429;-90
2022/02/07 02:18:52;;;;;;;12.35;2.17;;;5.10;79.20;;;;;;5066346;28;20029;-88
2022/02/07 02:21:25;;;;;;;7.45;1.92;;;5.10;79.20;;;;;;5067358;28;20025;-89
2022/02/07 02:37:31;;;;;;;7.63;1.65;;;5.20;79.10;;;;;;5065631;28;20040;-87
2022/02/07 02:47:55;;;;;;;9.63;2.15;;;5.30;79.20;;;;;;5059030;28;20487;-88
2022/02/07 02:50:29;;;;;;;10.07;2.20;;;5.20;79.20;;;;;;5065688;28;20104;-89
2022/02/07 02:52:56;;;;;;;6.25;1.92;;;5.20;79.40;;;;;;5066996;28;20040;-90
2022/02/07 02:55:22;;;;;;;8.52;1.98;;;5.20;79.50;;;;;;5063799;28;20033;-89
2022/02/07 02:57:47;;;;;;;10.68;1.98;;;5.20;79.60;;;;;;5063013;28;20059;-88
2022/02/07 03:00:13;;;;;;;13.88;2.55;;;5.30;79.80;;;;;;5062255;28;20025;-89
2022/02/07 03:02:39;;;;;;;11.90;2.45;;;5.30;79.80;;;;;;5064260;28;20391;-87
2022/02/07 03:05:05;;;;;;;9.18;2.20;;;5.30;79.90;;;;;;5067415;28;20031;-87
2022/02/07 03:07:30;;;;;;;13.10;2.53;;;5.30;80.00;;;;;;5072201;28;20036;-88
2022/02/07 03:09:59;;;;;;;10.95;2.15;;;5.30;80.00;;;;;;5070968;28;20378;-89
2022/02/07 03:12:25;;;;;;;10.85;2.40;;;5.30;80.00;;;;;;5073095;28;20032;-87
2022/02/07 03:14:51;;;;;;;10.05;2.20;;;5.30;80.00;;;;;;5067791;28;20075;-88
2022/02/07 03:17:16;;;;;;;8.93;2.22;;;5.30;80.00;;;;;;5066056;28;20053;-88
2022/02/07 03:19:42;;;;;;;8.77;2.38;;;5.40;80.00;;;;;;5065629;28;20121;-89
2022/02/07 03:22:08;;;;;;;9.48;2.28;;;5.40;79.90;;;;;;5071829;28;20368;-88
2022/02/07 03:24:34;;;;;;;10.55;2.15;;;5.40;79.80;;;;;;5067663;28;20028;-89
2022/02/07 03:27:01;;;;;;;10.90;2.22;;;5.40;79.80;;;;;;5070461;28;20020;-89
2022/02/07 03:29:26;;;;;;;10.77;2.15;;;5.40;79.60;;;;;;5070781;28;20077;-87
2022/02/07 03:31:52;;;;;;;6.97;2.20;;;5.40;79.40;;;;;;5064935;28;20029;-87
2022/02/07 03:34:17;;;;;;;8.73;1.90;;;5.40;79.40;;;;;;5064810;28;20047;-86
2022/02/07 03:36:43;;;;;;;8.55;2.13;;;5.50;79.40;;;;;;5068794;28;20027;-86
2022/02/07 03:39:09;;;;;;;10.55;2.30;;;5.50;79.20;;;;;;5063908;28;20024;-85
2022/02/07 03:41:36;;;;;;;9.55;2.35;;;5.50;79.00;;;;;;5068579;28;20022;-85
2022/02/07 03:44:03;;;;;;;11.05;2.17;;;5.50;78.80;;;;;;5064381;28;20438;-85
2022/02/07 03:46:28;;;;;;;11.73;2.03;;;5.50;78.70;;;;;;5068455;28;20128;-86
2022/02/07 03:48:54;;;;;;;9.13;2.20;;;5.50;78.50;;;;;;5068721;28;20103;-86
2022/02/07 03:51:20;;;;;;;9.90;2.25;;;5.60;78.40;;;;;;5066020;28;20029;-85
2022/02/07 03:53:45;;;;;;;10.30;2.60;;;5.60;78.30;;;;;;5062596;28;20033;-85
2022/02/07 03:56:11;;;;;;;6.72;1.98;;;5.60;77.80;;;;;;5065477;28;20060;-86
2022/02/07 03:58:37;;;;;;;11.45;2.35;;;5.60;77.70;;;;;;5063320;28;20032;-88
2022/02/07 04:01:03;;;;;;;9.27;2.40;;;5.70;77.50;;;;;;5070870;28;20483;-86
2022/02/07 04:03:31;;;;;;;14.13;2.25;;;5.70;77.60;;;;;;5062825;28;20671;-88
2022/02/07 04:06:01;;;;;;;10.45;1.98;;;5.80;77.50;;;;;;5071228;28;20016;-85
2022/02/07 04:08:31;;;;;;;9.07;2.10;;;5.80;77.50;;;;;;5071888;28;20078;-85
2022/02/07 04:11:13;;;;;;;12.95;2.33;;;5.80;77.30;;;;;;5061834;28;20052;-85
2022/02/07 04:13:41;;;;;;;11.90;2.17;;;5.80;77.10;;;;;;5057406;28;20043;-84
2022/02/07 04:16:07;;;;;;;9.60;2.50;;;5.90;77.00;;;;;;5064286;28;20020;-85
2022/02/07 04:18:51;;;;;;;9.18;2.20;;;5.90;76.90;;;;;;5066600;28;20115;-86
2022/02/07 04:21:17;;;;;;;9.80;2.42;;;6.00;76.80;;;;;;5060283;28;20031;-86
2022/02/07 04:23:42;;;;;;;9.27;2.03;;;6.00;76.60;;;;;;5066614;28;20737;-88
2022/02/07 04:26:08;;;;;;;11.10;2.13;;;6.00;76.50;;;;;;5070032;28;20373;-87
2022/02/07 04:28:33;;;;;;;8.65;2.15;;;6.00;76.40;;;;;;5062788;28;20099;-88
2022/02/07 04:30:59;;;;;;;5.45;1.70;;;6.00;76.30;;;;;;5059950;28;20025;-86
2022/02/07 04:33:24;;;;;;;7.10;2.08;;;6.10;77.00;;;;;;5058555;28;20166;-86
2022/02/07 04:35:50;;;;;;;8.15;2.30;;;6.10;76.30;;;;;;5058979;28;20028;-85
2022/02/07 04:38:15;;;;;;;13.05;2.28;;;6.10;76.20;;;;;;5065865;28;20551;-87
2022/02/07 04:40:41;;;;;;;11.50;2.38;;;6.20;76.30;;;;;;5065575;28;20020;-87
2022/02/07 04:43:09;;;;;;;8.63;2.13;;;6.20;76.20;;;;;;5062479;28;20063;-88
2022/02/07 04:49:01;;;;;;;11.32;2.67;;;6.20;76.10;;;;;;5071206;28;20043;-87
2022/02/07 05:03:40;;;;;;;10.68;2.83;;;6.30;76.30;;;;;;5066872;28;20051;-88
2022/02/07 05:14:19;;;;;;;9.98;2.30;;;6.30;76.50;;;;;;5057184;28;20102;-87
2022/02/07 05:16:47;;;;;;;10.88;2.20;;;6.40;76.60;;;;;;5060123;28;20624;-87
2022/02/07 05:19:12;;;;;;;11.40;2.25;;;6.40;76.60;;;;;;5061469;28;20021;-87
2022/02/07 05:21:38;;;;;;;12.73;2.65;;;6.40;76.70;;;;;;5070328;28;20093;-88
2022/02/07 05:24:03;;;;;;;13.93;2.28;;;6.40;76.70;;;;;;5067356;28;20020;-87
2022/02/07 05:26:29;;;;;;;11.80;2.20;;;6.40;76.80;;;;;;5061000;28;20097;-89
2022/02/07 05:28:59;;;;;;;9.65;2.35;;;6.40;76.80;;;;;;5067285;28;20043;-86
2022/02/07 05:31:24;;;;;;;7.60;1.90;;;6.50;76.80;;;;;;5061807;28;20040;-87
2022/02/07 05:33:50;;;;;;;9.30;2.70;;;6.50;76.90;;;;;;5067599;28;20418;-86
2022/02/07 05:36:15;;;;;;;10.10;1.80;;;6.50;76.80;;;;;;5064996;28;20028;-85
2022/02/07 05:38:45;;;;;;;9.18;2.10;;;6.50;76.80;;;;;;5069868;28;20024;-85
2022/02/07 05:41:12;;;;;;;7.30;1.90;;;6.50;76.90;;;;;;5063047;28;20024;-89
2022/02/07 05:43:39;;;;;;;9.60;2.10;;;6.50;77.00;;;;;;5065909;28;20444;-87
2022/02/07 05:46:05;;;;;;;9.80;1.95;;;6.50;77.00;;;;;;5061543;28;20095;-86
2022/02/07 05:48:30;;;;;;;7.85;2.05;;;6.60;77.00;;;;;;5066869;28;20105;-87
2022/02/07 05:50:56;;;;;;;9.13;2.03;;;6.60;77.10;;;;;;5063528;28;20154;-86
2022/02/07 05:53:21;;;;;;;10.77;2.28;;;6.60;77.20;;;;;;5061585;28;20040;-85
2022/02/07 05:55:47;;;;;;;10.60;2.72;;;6.50;77.20;;;;;;5063272;28;20016;-86
2022/02/07 05:58:12;;;;;;;9.00;2.75;;;6.60;77.40;;;;;;5059889;28;20017;-85
2022/02/07 06:00:38;;;;;;;10.52;2.45;;;6.50;77.30;;;;;;5066357;28;20494;-84
2022/02/07 06:03:04;;;;;;;16.42;2.83;;;6.50;77.40;;;;;;5063439;28;20032;-86
2022/02/07 06:05:30;;;;;;;12.10;2.50;;;6.50;77.40;;;;;;5065498;28;20067;-86
2022/02/07 06:07:56;;;;;;;13.23;2.60;;;6.50;77.50;;;;;;5062266;28;20483;-86
2022/02/07 06:10:22;;;;;;;9.00;2.30;;;6.60;77.50;;;;;;5064109;28;20095;-84
2022/02/07 06:12:48;;;;;;;9.32;2.10;;;6.60;77.60;;;;;;5067778;28;20028;-78
2022/02/07 06:15:15;;;;;;;9.65;2.22;;;6.60;77.70;;;;;;5067567;28;20416;-79
2022/02/07 06:17:43;;;;;;;7.05;2.00;;;6.60;77.70;;;;;;5065671;28;20057;-77
2022/02/07 06:20:09;;;;;;;9.38;2.10;;;6.60;77.70;;;;;;5062565;28;20039;-77
2022/02/07 06:22:34;;;;;;;11.27;2.50;;;6.60;77.80;;;;;;5065259;28;20032;-79
2022/02/07 06:25:03;;;;;;;12.00;2.28;;;6.70;77.90;;;;;;5067252;28;20085;-79
2022/02/07 06:27:29;;;;;;;9.88;2.25;;;6.60;78.40;;;;;;5067259;28;20020;-78
2022/02/07 06:29:54;;;;;;;10.05;2.17;;;6.60;77.90;;;;;;5067649;28;20063;-77
2022/02/07 06:32:20;;;;;;;10.82;2.40;;;6.60;77.90;;;;;;5067495;28;20052;-76
2022/02/07 06:34:45;;;;;;;8.45;2.08;;;6.60;77.90;;;;;;5069121;28;20058;-77
2022/02/07 06:37:11;;;;;;;9.27;2.00;;;6.60;78.00;;;;;;5065172;28;20025;-78
2022/02/07 06:39:36;;;;;;;11.13;2.22;;;6.60;78.10;;;;;;5069223;28;20123;-78
2022/02/07 06:42:02;;;;;;;11.07;2.15;;;6.60;78.20;;;;;;5068287;28;20074;-77
2022/02/07 06:44:28;;;;;;;10.07;2.20;;;6.50;78.20;;;;;;5068796;28;20037;-79
2022/02/07 06:46:54;;;;;;;8.05;1.90;;;6.50;78.20;;;;;;5062385;28;20031;-78
2022/02/07 06:49:20;;;;;;;8.70;2.10;;;6.50;78.30;;;;;;5053653;28;20040;-79
2022/02/07 06:51:46;;;;;;;7.60;1.80;;;6.50;78.40;;;;;;5067296;28;20035;-79
2022/02/07 06:54:12;;;;;;;8.70;1.80;;;6.50;78.50;;;;;;5069472;28;20040;-78
2022/02/07 06:56:39;;;;;;;6.70;2.00;;;6.50;78.60;;;;;;5060614;28;20021;-79
2022/02/07 06:59:05;;;;;;;9.18;1.88;;;6.50;78.60;;;;;;5063903;28;20071;-79
2022/02/07 07:01:30;;;;;;;8.35;2.00;;;6.50;78.60;;;;;;5052590;28;20028;-78
2022/02/07 07:03:56;;;;;;;9.10;2.10;;;6.50;78.70;;;;;;5064653;28;20038;-78
2022/02/07 07:06:22;;;;;;;12.73;3.08;;;6.50;78.70;;;;;;5053206;28;20501;-81
2022/02/07 07:08:54;;;;;;;9.75;2.13;;;6.40;78.60;;;;;;5061276;28;20043;-80
2022/02/07 07:11:26;;;;;;;9.05;1.95;;;6.50;78.70;;;;;;5061279;28;20075;-79
2022/02/07 07:13:59;;;;;;;7.68;2.03;;;6.50;78.80;;;;;;5061752;28;20032;-79
2022/02/07 07:16:39;;;;;;;9.98;2.00;;;6.40;78.80;;;;;;5053696;28;20060;-79
2022/02/07 07:19:05;;;;;;;10.23;2.30;;;6.50;78.90;;;;;;5060238;28;20025;-80
2022/02/07 07:21:32;;;;;;;7.85;2.08;;;6.50;79.00;;;;;;5060658;28;20035;-80
2022/02/07 07:23:58;;;;;;;9.27;2.42;;;6.50;79.00;;;;;;5059502;28;20052;-78
2022/02/07 07:26:26;;;;;;;9.95;2.50;;;6.50;79.00;;;;;;5061754;28;20033;-78
2022/02/07 07:28:53;;;;;;;11.40;2.47;;;6.50;79.10;;;;;;5058000;28;20024;-78
2022/02/07 07:31:22;;;;;;;13.55;2.55;;;6.40;79.00;;;;;;5062527;28;20087;-78
2022/02/07 07:33:51;;;;;;;13.40;2.58;;;6.40;79.10;;;;;;5060322;28;20556;-78
2022/02/07 07:36:17;;;;;;;7.57;1.98;;;6.30;79.10;;;;;;5056719;28;20047;-78
2022/02/07 07:38:43;;;;;;;7.50;2.00;;;6.40;79.20;;;;;;5061683;28;20411;-79
2022/02/07 07:41:11;;;;;;;4.80;1.60;;;6.40;79.20;;;;;;5062378;28;20031;-79
2022/02/07 07:43:39;;;;;;;12.50;2.65;;;6.40;79.20;;;;;;5063193;28;20074;-78
2022/02/07 07:46:10;;;;;;;13.20;2.78;;;6.40;79.20;;;;;;5049070;28;20032;-76
2022/02/07 07:48:36;;;;;;;9.82;1.88;;;6.40;79.20;;;;;;5055221;28;20025;-76
2022/02/07 07:51:08;;;;;;;9.00;2.22;;;6.40;79.30;;;;;;5059195;28;20021;-77
2022/02/07 08:04:09;;;;;;;9.90;2.03;;;6.40;79.30;;;;;;5067573;28;20475;-76
2022/02/07 08:06:51;;;;;;;9.70;2.45;;;6.50;79.40;;;;;;5057622;28;20051;-78
2022/02/07 08:12:13;;;;;;;11.10;2.38;;;6.50;79.20;;;;;;5075135;28;20032;-77
2022/02/07 08:14:39;;;;;;;13.82;2.65;;;6.50;79.30;;;;;;5059904;28;20017;-79
2022/02/07 08:17:07;;;;;;;10.52;2.65;;;6.50;79.30;;;;;;5056301;28;20051;-79
2022/02/07 08:19:33;;;;;;;9.57;2.20;;;6.50;79.20;;;;;;5060017;28;20048;-79
2022/02/07 08:22:00;;;;;;;11.60;2.88;;;6.60;79.30;;;;;;5051627;28;20044;-75
2022/02/07 08:24:26;;;;;;;10.48;2.50;;;6.60;79.30;;;;;;5060465;28;20036;-79
2022/02/07 08:26:54;;;;;;;12.45;2.60;;;6.60;79.20;;;;;;5060900;28;20104;-80
2022/02/07 08:29:20;;;;;;;10.27;2.47;;;6.70;79.30;;;;;;5058053;28;20085;-78
2022/02/07 08:31:45;;;;;;;12.32;2.70;;;6.70;79.20;;;;;;5059866;28;20390;-79
2022/02/07 08:34:11;;;;;;;9.48;2.10;;;6.80;79.10;;;;;;5061158;28;20031;-78
2022/02/07 08:36:37;;;;;;;9.80;2.30;;;6.70;79.10;;;;;;5058738;28;20040;-80
2022/02/07 08:39:04;;;;;;;10.65;2.35;;;6.90;79.10;;;;;;5053918;28;20027;-79
2022/02/07 08:41:30;;;;;;;12.07;2.47;;;6.90;79.00;;;;;;5055236;28;20511;-80
2022/02/07 08:43:56;;;;;;;15.15;2.85;;;6.90;78.90;;;;;;5052737;28;20043;-78
2022/02/07 08:46:22;;;;;;;15.85;2.80;;;7.00;79.50;;;;;;5052625;28;20040;-78
2022/02/07 08:48:48;;;;;;;13.77;2.85;;;6.90;78.70;;;;;;5060679;28;20486;-80
2022/02/07 08:51:15;;;;;;;11.75;2.95;;;7.00;78.80;;;;;;5056524;28;20415;-77
2022/02/07 08:53:44;;;;;;;13.38;2.53;;;7.00;78.80;;;;;;5061027;28;20429;-78
2022/02/07 08:56:10;;;;;;;9.02;2.00;;;7.00;78.80;;;;;;5056358;28;20052;-78
2022/02/07 08:58:39;;;;;;;8.30;2.28;;;7.10;78.80;;;;;;5058150;28;20570;-78
2022/02/07 09:01:15;;;;;;;9.57;2.33;;;7.10;78.70;;;;;;5059778;28;20016;-80
2022/02/07 09:04:06;;;;;;;11.65;2.40;;;7.20;78.70;;;;;;5059634;28;20028;-77
2022/02/07 09:06:36;;;;;;;9.95;2.40;;;7.20;78.70;;;;;;5056251;28;20028;-79
2022/02/07 09:09:08;;;;;;;14.95;2.90;;;7.20;78.60;;;;;;5057943;28;20051;-78
2022/02/07 09:11:34;;;;;;;13.68;3.33;;;7.30;78.60;;;;;;5060712;28;20028;-79
2022/02/07 09:14:08;;;;;;;11.50;2.60;;;7.20;78.60;;;;;;5058293;28;20147;-78
2022/02/07 09:16:34;;;;;;;18.60;3.50;;;7.30;78.60;;;;;;5060771;28;20101;-80
2022/02/07 09:19:00;;;;;;;11.65;2.67;;;7.30;78.50;;;;;;5060141;28;20068;-79
2022/02/07 09:21:28;;;;;;;11.00;2.63;;;7.40;78.50;;;;;;5059317;28;20025;-79
2022/02/07 09:23:54;;;;;;;16.23;2.95;;;7.40;78.50;;;;;;5058062;28;20020;-79
2022/02/07 09:26:20;;;;;;;10.15;2.58;;;7.50;78.40;;;;;;5059066;28;20115;-79
2022/02/07 09:28:46;;;;;;;9.98;2.58;;;7.50;78.40;;;;;;5057852;28;20078;-80
2022/02/07 09:31:12;;;;;;;13.23;2.90;;;7.60;78.50;;;;;;5057404;28;20016;-82
2022/02/07 09:33:40;;;;;;;12.00;3.33;;;7.60;78.40;;;;;;5060722;28;20052;-84
2022/02/07 09:36:05;;;;;;;16.02;3.63;;;7.60;78.30;;;;;;5059415;28;20082;-80
2022/02/07 09:38:32;;;;;;;14.68;2.88;;;7.60;78.20;;;;;;5059381;28;20033;-81
2022/02/07 09:40:59;;;;;;;10.88;2.47;;;7.70;78.20;;;;;;5064082;28;20024;-80
2022/02/07 09:43:30;;;;;;;14.02;3.17;;;7.80;78.20;;;;;;5062616;28;20027;-79
2022/02/07 09:46:04;;;;;;;13.38;3.05;;;7.90;78.20;;;;;;5055986;28;20021;-79
2022/02/07 09:48:32;;;;;;;10.38;2.13;;;7.90;78.00;;;;;;5058649;28;20558;-81
2022/02/07 09:50:57;;;;;;;12.65;2.90;;;8.00;77.90;;;;;;5060650;28;20025;-85
2022/02/07 09:53:25;;;;;;;14.80;3.22;;;8.00;77.80;;;;;;5063947;28;20097;-83
2022/02/07 09:55:51;;;;;;;10.05;2.30;;;8.10;77.50;;;;;;5059300;28;20025;-87
2022/02/07 09:58:17;;;;;;;10.82;2.10;;;8.20;77.40;;;;;;5065610;28;20081;-90
2022/02/07 10:00:42;;;;;;;11.88;2.70;;;8.20;77.30;;;;;;5061643;28;20012;-85
2022/02/07 10:03:16;;;;;;;10.65;2.55;;;8.30;77.20;;;;;;5062789;28;20033;-84
2022/02/07 10:05:55;;;;;;;11.52;2.47;;;8.30;77.00;;;;;;5055082;28;20427;-87
2022/02/07 10:16:24;;;;;;;8.05;2.38;;;8.30;76.40;;;;;;5052951;28;20025;-86
2022/02/07 10:34:33;;;;;;;9.52;2.00;;;8.20;75.60;;;;;;5058845;28;19911;-82
2022/02/07 10:36:15;;;;;;;11.85;2.28;;;8.00;74.80;;;;;;5058139;28;20600;-87
2022/02/07 10:41:28;;;;;;;9.43;1.90;;;8.00;74.70;;;;;;5064600;28;20383;-87
2022/02/07 10:44:08;;;;;;;10.32;2.40;;;8.00;74.60;;;;;;5065210;28;20081;-88
2022/02/07 10:46:35;;;;;;;6.03;1.73;;;8.10;74.60;;;;;;5056744;28;20017;-86
2022/02/07 10:49:08;;;;;;;8.40;1.90;;;8.20;74.50;;;;;;5056535;28;20025;-88
2022/02/07 10:51:36;;;;;;;;;;;8.20;74.40;;;;;;5068365;28;20027;-86
2022/02/07 10:54:11;;;;;;;9.40;2.10;;;8.20;74.30;;;;;;5069216;28;20011;-82
2022/02/07 10:56:44;;;;;;;7.20;1.85;;;8.30;74.40;;;;;;5061881;28;20120;-82
2022/02/07 10:59:13;;;;;;;12.27;2.33;;;8.30;74.20;;;;;;5066327;28;20013;-85
2022/02/07 11:04:43;;;;;;;9.45;2.38;;;8.40;74.00;;;;;;5500315;22;20970;-90
2022/02/07 11:07:11;;;;;;;10.57;2.28;;;8.50;73.50;;;;;;5064435;28;20041;-86
2022/02/07 11:09:54;;;;;;;12.52;2.38;;;8.50;73.40;;;;;;5062414;28;20452;-87
2022/02/07 11:13:10;;;;;;;10.40;2.10;;;8.50;73.30;;;;;;5060904;28;20032;-86
2022/02/07 11:15:26;;;;;;;8.98;2.13;;;8.50;73.40;;;;;;5059669;28;20117;-86
2022/02/07 11:47:42;;;;;;;10.15;2.05;;;7.90;71.00;;;;;;6321499;21;885804;-90
2022/02/07 11:50:08;;;;;;;7.93;2.05;;;9.00;71.80;;;;;;6251225;22;1220715;-84
2022/02/07 11:52:45;;;;;;;10.70;2.28;;;9.20;71.40;;;;;;6274170;22;20418;-93
2022/02/07 11:55:15;;;;;;;8.00;1.90;;;9.20;70.70;;;;;;6284203;22;20011;-94
2022/02/07 11:57:52;;;;;;;8.57;1.98;;;9.20;70.30;;;;;;6279769;22;20004;-94
2022/02/07 12:00:25;;;;;;;5.88;1.80;;;9.30;70.20;;;;;;6281254;22;19996;-94
2022/02/07 12:02:52;;;;;;;7.53;2.20;;;9.40;70.10;;;;;;6281936;22;20226;-95
2022/02/07 12:05:20;;;;;;;5.28;1.80;;;9.40;69.60;;;;;;6281791;22;20059;-95
2022/02/07 12:08:04;;;;;;;6.97;1.90;;;9.40;69.40;;;;;;6283023;22;20323;-92
2022/02/07 12:13:03;;;;;;;9.10;2.08;;;9.50;69.00;;;;;;6280958;22;20086;-93
2022/02/07 12:15:43;;;;;;;8.05;1.80;;;9.70;68.90;;;;;;6281666;22;20000;-95
2022/02/07 12:18:12;;;;;;;8.65;2.35;;;9.60;68.70;;;;;;6281294;22;20007;-94
2022/02/07 12:20:39;;;;;;;7.90;2.00;;;9.70;68.70;;;;;;6278723;22;20075;-93
2022/02/07 12:23:09;;;;;;;5.72;1.80;;;9.60;68.50;;;;;;6281359;22;20003;-92
2022/02/07 12:25:54;;;;;;;5.50;1.88;;;9.70;68.00;;;;;;6280722;22;20015;-93
2022/02/07 12:28:39;;;;;;;9.50;2.03;;;9.80;67.50;;;;;;6282404;22;20010;-93
2022/02/07 12:31:18;;;;;;;9.45;2.20;;;9.80;67.00;;;;;;6281088;22;20022;-94
2022/02/07 12:33:46;;;;;;;8.95;1.90;;;9.50;66.90;;;;;;6275793;22;20541;-85
2022/02/07 12:36:12;;;;;;;7.85;1.90;;;9.40;67.60;;;;;;6276388;22;20043;-86
2022/02/07 12:38:40;;;;;;;7.40;1.77;;;9.30;67.90;;;;;;6278225;22;20010;-88
2022/02/07 12:41:13;;;;;;;8.20;1.95;;;9.30;68.30;;;;;;6273724;22;20094;-84
2022/02/07 12:43:40;;;;;;;6.32;2.00;;;9.20;68.10;;;;;;6276003;22;20038;-88
2022/02/07 12:46:10;;;;;;;6.35;1.67;;;9.20;68.70;;;;;;6278173;22;20003;-87
2022/02/07 12:48:40;;;;;;;7.20;1.83;;;9.20;67.70;;;;;;6269942;22;20426;-86
2022/02/07 12:51:05;;;;;;;5.20;1.58;;;9.20;67.60;;;;;;6268302;22;20011;-89
2022/02/07 12:53:32;;;;;;;8.38;1.70;;;9.30;67.90;;;;;;6272897;22;20000;-86
2022/02/07 12:56:00;;;;;;;4.70;1.60;;;9.30;68.10;;;;;;6272487;22;20015;-86
2022/02/07 12:58:45;;;;;;;5.93;1.80;;;9.30;67.90;;;;;;6273503;22;20422;-89
2022/02/07 13:01:20;;;;;;;5.63;1.60;;;9.20;67.60;;;;;;6270959;22;20007;-88
2022/02/07 13:04:06;;;;;;;6.40;1.60;;;9.20;67.70;;;;;;6271507;22;19996;-87
2022/02/07 13:06:38;;;;;;;5.10;1.52;;;9.10;67.60;;;;;;6269479;22;20466;-86
2022/02/07 13:09:27;;;;;;;6.38;1.80;;;9.00;67.40;;;;;;6270266;22;20003;-85
2022/02/07 13:14:41;;;;;;;8.70;1.70;;;8.90;67.40;;;;;;6282564;22;20418;-85
2022/02/07 13:17:07;;;;;;;8.18;1.60;;;8.90;67.40;;;;;;6270191;22;20012;-85
2022/02/07 13:19:38;;;;;;;8.48;2.10;;;8.90;67.60;;;;;;6269562;22;20039;-86
2022/02/07 13:22:05;;;;;;;4.10;1.52;;;8.90;67.40;;;;;;6269363;22;20027;-87
2022/02/07 13:24:33;;;;;;;5.70;1.88;;;8.90;67.60;;;;;;6272686;22;20004;-84
2022/02/07 13:27:00;;;;;;;4.90;1.50;;;8.90;67.60;;;;;;6269393;22;20265;-85
2022/02/07 13:29:28;;;;;;;5.70;1.55;;;8.90;67.80;;;;;;6269874;22;20007;-86
2022/02/07 13:31:58;;;;;;;5.93;1.83;;;8.90;67.80;;;;;;6268170;22;20030;-85
2022/02/07 13:34:26;;;;;;;6.05;1.75;;;9.00;67.80;;;;;;6271338;22;20779;-87
2022/02/07 13:36:53;;;;;;;4.63;1.50;;;8.90;67.00;;;;;;6267918;22;20667;-75
2022/02/07 13:39:20;;;;;;;5.32;1.77;;;8.90;67.10;;;;;;6268339;22;19996;-75
2022/02/07 13:42:05;;;;;;;4.15;1.40;;;9.00;67.30;;;;;;6266512;22;20003;-75
2022/02/07 13:44:31;;;;;;;6.43;1.63;;;9.10;67.40;;;;;;6269397;22;20015;-75
2022/02/07 13:47:02;;;;;;;6.07;1.92;;;9.20;65.80;;;;;;6268758;22;19995;-75
2022/02/07 13:49:28;;;;;;;4.93;1.70;;;9.10;65.40;;;;;;6269334;22;20545;-75
2022/02/07 13:51:54;;;;;;;4.38;1.60;;;9.10;65.80;;;;;;6266987;22;20003;-77
2022/02/07 13:54:28;;;;;;;6.53;1.40;;;9.10;65.90;;;;;;6269385;22;20003;-77
2022/02/07 13:57:00;;;;;;;4.60;1.45;;;9.10;66.10;;;;;;6266977;22;20038;-77
2022/02/07 13:59:35;;;;;;;3.75;1.70;;;9.10;66.20;;;;;;6267405;22;19995;-77
2022/02/07 14:02:01;;;;;;;5.25;1.60;;;9.10;65.90;;;;;;6267490;22;20428;-77
2022/02/07 14:04:27;;;;;;;5.55;1.60;;;9.10;66.00;;;;;;6266280;22;20003;-79
2022/02/07 14:07:09;;;;;;;3.67;1.50;;;9.10;65.90;;;;;;6268704;22;20043;-78
2022/02/07 14:09:35;;;;;;;4.60;1.48;;;9.20;66.30;;;;;;6269676;22;20057;-76
2022/02/07 14:12:03;;;;;;;5.70;2.03;;;9.20;66.80;;;;;;6267458;22;20418;-76
2022/02/07 14:14:29;;;;;;;4.00;1.40;;;9.20;66.00;;;;;;6267484;22;20008;-76
2022/02/07 14:16:54;;;;;;;5.57;1.70;;;9.30;66.20;;;;;;6268502;22;20015;-74
2022/02/07 14:19:39;;;;;;;6.93;1.85;;;9.40;66.20;;;;;;6267976;22;20419;-75
2022/02/07 14:22:05;;;;;;;6.30;1.77;;;9.30;66.10;;;;;;6266549;22;20062;-76
2022/02/07 14:24:31;;;;;;;3.88;1.27;;;9.20;66.10;;;;;;6269267;22;20453;-76
2022/02/07 14:26:57;;;;;;;5.07;1.40;;;9.10;66.20;;;;;;6268802;22;19996;-75
2022/02/07 14:29:23;;;;;;;6.38;1.80;;;9.10;66.20;;;;;;6268976;22;20008;-76
2022/02/07 14:31:48;;;;;;;7.47;1.88;;;9.00;66.00;;;;;;6267272;22;20007;-76
2022/02/07 14:34:14;;;;;;;4.30;1.58;;;9.00;65.70;;;;;;6268629;22;20011;-77
2022/02/07 14:36:40;;;;;;;5.45;1.52;;;8.90;65.60;;;;;;6266946;22;20011;-75
2022/02/07 14:39:08;;;;;;;5.72;1.52;;;8.90;65.80;;;;;;6266551;22;20003;-76
2022/02/07 14:41:35;;;;;;;6.43;1.60;;;8.90;65.90;;;;;;6266676;22;20448;-78
2022/02/07 14:44:02;;;;;;;3.53;1.65;;;8.90;65.70;;;;;;6269282;22;20020;-76
2022/02/07 14:46:42;;;;;;;4.40;1.50;;;8.90;65.90;;;;;;6269918;22;20014;-82
2022/02/07 14:49:08;;;;;;;3.58;1.33;;;8.90;66.10;;;;;;6268517;22;20060;-82
2022/02/07 14:51:33;;;;;;;5.13;1.45;;;8.90;66.10;;;;;;6267379;22;20007;-81
2022/02/07 14:53:59;;;;;;;3.80;1.30;;;8.80;66.10;;;;;;6268858;22;20414;-84
2022/02/07 14:56:25;;;;;;;7.30;1.95;;;8.80;66.40;;;;;;6266975;22;20709;-82
2022/02/07 14:58:52;;;;;;;5.45;1.50;;;8.80;66.40;;;;;;6268181;22;20002;-83
2022/02/07 15:01:19;;;;;;;5.35;1.50;;;8.70;66.40;;;;;;6268083;22;20449;-81
2022/02/07 15:03:49;;;;;;;5.15;1.60;;;8.80;66.60;;;;;;6268077;22;19996;-81
2022/02/07 15:06:15;;;;;;;2.55;1.17;;;8.80;66.50;;;;;;6268092;22;20078;-81
2022/02/07 15:08:40;;;;;;;4.70;1.42;;;8.80;66.50;;;;;;6268499;22;20031;-81
2022/02/07 15:11:06;;;;;;;5.38;1.58;;;8.70;66.00;;;;;;6265700;22;20369;-81
2022/02/07 15:13:34;;;;;;;4.55;1.20;;;8.70;65.80;;;;;;6265498;22;20722;-81
2022/02/07 15:16:03;;;;;;;2.58;1.13;;;8.60;65.80;;;;;;6265986;22;20424;-82
2022/02/07 15:18:29;;;;;;;4.93;1.50;;;8.70;66.10;;;;;;6266104;22;20004;-82
2022/02/07 15:20:57;;;;;;;4.20;1.50;;;8.60;65.80;;;;;;6264570;22;20057;-80
2022/02/07 15:23:23;;;;;;;4.35;1.60;;;8.60;65.60;;;;;;6267526;22;20007;-80
2022/02/07 15:25:49;;;;;;;3.03;1.30;;;8.50;65.50;;;;;;6267670;22;20003;-83
2022/02/07 15:28:14;;;;;;;4.63;1.23;;;8.50;65.40;;;;;;6266676;22;20326;-87
2022/02/07 15:30:41;;;;;;;6.85;1.58;;;8.50;65.70;;;;;;6264131;22;20009;-82
2022/02/07 15:33:09;;;;;;;3.35;1.20;;;8.50;65.80;;;;;;6267076;22;20004;-82
2022/02/07 15:35:36;;;;;;;3.33;1.25;;;8.50;66.00;;;;;;6267067;22;20012;-85
2022/02/07 15:38:02;;;;;;;3.55;1.30;;;8.50;66.10;;;;;;6265430;22;20019;-80
2022/02/07 15:40:28;;;;;;;8.43;1.55;;;8.50;65.80;;;;;;6266428;22;20004;-81